createdAt,value
2022-11-06T00:02:20.857Z,5.95
2022-11-06T00:05:41.565Z,5.82
2022-11-06T00:08:43.188Z,5.69
2022-11-06T00:11:44.740Z,5.83
2022-11-06T00:14:46.339Z,6.06
2022-11-06T00:17:51.051Z,6.12
2022-11-06T00:20:52.618Z,6.07
2022-11-06T00:23:54.872Z,5.97
2022-11-06T00:26:56.450Z,5.80
2022-11-06T00:29:57.992Z,5.71
2022-11-06T00:32:59.593Z,5.78
2022-11-06T00:36:05.075Z,5.97
2022-11-06T00:39:06.777Z,5.98
2022-11-06T00:42:08.309Z,5.98
2022-11-06T00:45:10.025Z,5.81
2022-11-06T00:48:11.820Z,5.61
2022-11-06T00:51:14.824Z,5.52
2022-11-06T00:54:16.336Z,5.36
2022-11-06T00:57:17.907Z,5.15
2022-11-06T01:00:20.568Z,5.05
2022-11-06T01:03:22.231Z,5.03
2022-11-06T01:06:24.991Z,5.04
2022-11-06T01:09:27.082Z,4.92
2022-11-06T01:12:30.751Z,4.84
2022-11-06T01:15:32.406Z,4.74
2022-11-06T01:18:34.172Z,4.67
2022-11-06T01:21:36.696Z,4.66
2022-11-06T01:24:38.327Z,4.66
2022-11-06T01:27:39.954Z,4.68
2022-11-06T01:30:41.491Z,4.73
2022-11-06T01:33:44.281Z,4.69
2022-11-06T01:36:46.743Z,4.68
2022-11-06T01:39:49.062Z,4.71
2022-11-06T01:42:50.667Z,4.81
2022-11-06T01:45:53.331Z,4.92
2022-11-06T01:48:56.023Z,4.98
2022-11-06T01:51:58.836Z,4.95
2022-11-06T01:55:08.291Z,4.92
2022-11-06T01:58:12.555Z,4.88
2022-11-06T02:01:14.287Z,4.81
2022-11-06T02:04:18.298Z,4.79
2022-11-06T02:07:19.869Z,4.78
2022-11-06T02:10:21.437Z,4.79
2022-11-06T02:13:22.959Z,4.81
2022-11-06T02:16:24.485Z,4.79
2022-11-06T02:19:44.650Z,4.71
2022-11-06T02:22:46.192Z,4.65
2022-11-06T02:26:06.080Z,4.59
2022-11-06T02:29:08.294Z,4.59
2022-11-06T02:32:11.034Z,4.58
2022-11-06T02:35:20.548Z,4.63
2022-11-06T02:38:26.584Z,4.55
2022-11-06T02:41:32.080Z,4.48
2022-11-06T02:44:34.328Z,4.59
2022-11-06T02:47:35.838Z,4.55
2022-11-06T02:50:40.184Z,4.51
2022-11-06T02:53:46.789Z,4.40
2022-11-06T02:56:49.114Z,4.31
2022-11-06T02:59:52.597Z,4.15
2022-11-06T03:02:54.298Z,4.05
2022-11-06T03:06:01.315Z,4.02
2022-11-06T03:09:03.922Z,4.06
2022-11-06T03:12:25.881Z,4.01
2022-11-06T03:15:35.039Z,3.95
2022-11-06T03:18:38.963Z,3.90
2022-11-06T03:21:45.960Z,3.90
2022-11-06T03:24:47.502Z,3.90
2022-11-06T03:28:07.167Z,3.86
2022-11-06T03:31:10.152Z,3.82
2022-11-06T03:34:12.998Z,3.83
2022-11-06T03:37:16.239Z,3.87
2022-11-06T03:40:18.154Z,3.86
2022-11-06T03:43:20.939Z,3.83
2022-11-06T03:46:25.124Z,3.82
2022-11-06T03:49:28.528Z,3.98
2022-11-06T03:52:42.513Z,4.01
2022-11-06T03:55:49.275Z,3.95
2022-11-06T03:58:50.877Z,3.90
2022-11-06T04:01:53.691Z,3.82
2022-11-06T04:05:03.608Z,3.72
2022-11-06T04:08:23.839Z,3.81
2022-11-06T04:11:44.674Z,3.91
2022-11-06T04:14:47.093Z,4.01
2022-11-06T04:17:48.568Z,4.04
2022-11-06T04:21:26.069Z,4.06
2022-11-06T04:24:50.268Z,4.03
2022-11-06T04:27:57.899Z,4.01
2022-11-06T04:31:06.179Z,4.00
2022-11-06T04:34:09.552Z,4.02
2022-11-06T04:37:12.820Z,4.01
2022-11-06T04:40:25.213Z,4.03
2022-11-06T04:43:45.359Z,4.02
2022-11-06T04:46:53.516Z,4.01
2022-11-06T04:49:56.468Z,3.96
2022-11-06T04:52:58.113Z,3.88
2022-11-06T04:56:21.441Z,3.82
2022-11-06T04:59:23.245Z,3.73
2022-11-06T05:02:24.908Z,3.73
2022-11-06T05:05:27.338Z,3.68
2022-11-06T05:08:28.870Z,3.67
2022-11-06T05:11:30.448Z,3.68
2022-11-06T05:14:32.695Z,3.73
2022-11-06T05:17:36.696Z,3.72
2022-11-06T05:20:38.404Z,3.70
2022-11-06T05:23:40.121Z,3.66
2022-11-06T05:26:41.759Z,3.65
2022-11-06T05:29:43.308Z,3.62
2022-11-06T05:32:44.848Z,3.61
2022-11-06T05:35:46.437Z,3.63
2022-11-06T05:38:47.990Z,3.64
2022-11-06T05:41:50.297Z,3.63
2022-11-06T05:44:52.100Z,3.59
2022-11-06T05:47:53.699Z,3.47
2022-11-06T05:51:01.887Z,3.44
2022-11-06T05:54:04.379Z,3.42
2022-11-06T05:57:05.864Z,3.43
2022-11-06T06:00:07.769Z,3.45
2022-11-06T06:03:14.140Z,3.40
2022-11-06T06:06:15.745Z,3.41
2022-11-06T06:09:17.274Z,3.41
2022-11-06T06:12:18.871Z,3.44
2022-11-06T06:15:20.451Z,3.46
2022-11-06T06:18:21.983Z,3.46
2022-11-06T06:21:23.516Z,3.51
2022-11-06T06:24:25.229Z,3.54
2022-11-06T06:27:27.684Z,3.49
2022-11-06T06:30:29.317Z,3.53
2022-11-06T06:33:30.847Z,3.51
2022-11-06T06:36:32.392Z,3.54
2022-11-06T06:39:33.876Z,3.54
2022-11-06T06:42:35.538Z,3.55
2022-11-06T06:45:37.106Z,3.49
2022-11-06T06:48:38.818Z,3.65
2022-11-06T06:51:40.368Z,3.67
2022-11-06T06:54:41.996Z,3.56
2022-11-06T06:57:43.539Z,3.44
2022-11-06T07:00:45.346Z,3.39
2022-11-06T07:03:47.000Z,3.38
2022-11-06T07:06:48.563Z,3.35
2022-11-06T07:09:50.141Z,3.34
2022-11-06T07:12:51.660Z,3.38
2022-11-06T07:15:53.195Z,3.38
2022-11-06T07:18:54.786Z,3.38
2022-11-06T07:21:56.286Z,3.35
2022-11-06T07:24:57.828Z,3.31
2022-11-06T07:28:06.008Z,3.31
2022-11-06T07:31:08.292Z,3.33
2022-11-06T07:34:10.008Z,3.34
2022-11-06T07:37:11.575Z,3.40
2022-11-06T07:40:14.828Z,3.42
2022-11-06T07:43:16.821Z,3.44
2022-11-06T07:46:19.604Z,3.46
2022-11-06T07:49:21.100Z,3.46
2022-11-06T07:52:22.667Z,3.47
2022-11-06T07:55:24.307Z,3.43
2022-11-06T07:58:25.980Z,3.42
2022-11-06T08:01:27.587Z,3.42
2022-11-06T08:04:29.203Z,3.39
2022-11-06T08:07:30.742Z,3.44
2022-11-06T08:10:32.379Z,3.56
2022-11-06T08:13:35.118Z,3.59
2022-11-06T08:16:36.615Z,3.66
2022-11-06T08:19:38.268Z,3.69
2022-11-06T08:22:39.804Z,3.74
2022-11-06T08:25:41.420Z,3.76
2022-11-06T08:28:43.285Z,3.78
2022-11-06T08:31:44.898Z,3.90
2022-11-06T08:34:46.461Z,3.98
2022-11-06T08:37:48.012Z,3.91
2022-11-06T08:40:53.611Z,3.93
2022-11-06T08:43:55.606Z,3.96
2022-11-06T08:46:57.173Z,3.90
2022-11-06T08:49:58.683Z,3.87
2022-11-06T08:53:04.389Z,3.91
2022-11-06T08:56:06.292Z,3.92
2022-11-06T08:59:07.880Z,3.85
2022-11-06T09:02:13.187Z,3.81
2022-11-06T09:05:14.834Z,3.87
2022-11-06T09:08:16.390Z,3.89
2022-11-06T09:11:17.998Z,3.96
2022-11-06T09:14:19.532Z,4.03
2022-11-06T09:17:23.785Z,4.05
2022-11-06T09:20:25.622Z,4.01
2022-11-06T09:23:27.259Z,4.09
2022-11-06T09:26:28.784Z,4.22
2022-11-06T09:29:30.351Z,4.24
2022-11-06T09:32:31.971Z,4.25
2022-11-06T09:35:34.118Z,4.17
2022-11-06T09:38:35.698Z,4.26
2022-11-06T09:41:37.170Z,4.35
2022-11-06T09:44:52.499Z,4.36
2022-11-06T09:47:59.636Z,4.44
2022-11-06T09:51:14.767Z,4.33
2022-11-06T09:54:24.051Z,4.23
2022-11-06T09:57:29.800Z,4.18
2022-11-06T10:00:31.365Z,4.28
2022-11-06T10:03:36.202Z,4.24
2022-11-06T10:06:37.734Z,4.32
2022-11-06T10:09:39.263Z,4.31
2022-11-06T10:12:50.435Z,4.24
2022-11-06T10:15:58.596Z,4.15
2022-11-06T10:19:06.910Z,4.11
2022-11-06T10:22:08.468Z,4.09
2022-11-06T10:25:10.056Z,4.10
2022-11-06T10:28:21.724Z,4.12
2022-11-06T10:31:26.341Z,4.25
2022-11-06T10:34:44.143Z,4.30
2022-11-06T10:37:50.128Z,4.33
2022-11-06T10:40:53.768Z,4.33
2022-11-06T10:43:57.313Z,4.35
2022-11-06T10:47:01.192Z,4.29
2022-11-06T10:50:03.977Z,4.23
2022-11-06T10:53:09.410Z,4.17
2022-11-06T10:56:29.779Z,4.14
2022-11-06T10:59:31.368Z,4.14
2022-11-06T11:02:36.537Z,4.09
2022-11-06T11:05:39.333Z,4.11
2022-11-06T11:08:45.280Z,4.01
2022-11-06T11:11:49.332Z,4.05
2022-11-06T11:15:14.109Z,4.16
2022-11-06T11:18:17.522Z,4.23
2022-11-06T11:21:19.406Z,4.45
2022-11-06T11:24:21.079Z,4.64
2022-11-06T11:27:22.583Z,4.77
2022-11-06T11:30:29.626Z,4.88
2022-11-06T11:33:31.320Z,4.87
2022-11-06T11:36:51.267Z,4.75
2022-11-06T11:39:52.876Z,4.69
2022-11-06T11:42:54.402Z,4.68
2022-11-06T11:46:03.792Z,4.61
2022-11-06T11:49:05.685Z,4.68
2022-11-06T11:52:11.960Z,4.74
2022-11-06T11:55:17.512Z,4.80
2022-11-06T11:58:23.396Z,4.87
2022-11-06T12:01:34.361Z,4.85
2022-11-06T12:04:41.768Z,4.85
2022-11-06T12:07:46.340Z,4.77
2022-11-06T12:10:48.227Z,4.79
2022-11-06T12:14:13.103Z,4.77
2022-11-06T12:17:15.852Z,4.83
2022-11-06T12:20:27.959Z,4.86
2022-11-06T12:23:29.426Z,4.92
2022-11-06T12:26:36.867Z,5.05
2022-11-06T12:29:40.058Z,5.22
2022-11-06T12:33:00.526Z,5.43
2022-11-06T12:36:07.390Z,5.59
2022-11-06T12:39:19.909Z,5.78
2022-11-06T12:42:21.419Z,5.84
2022-11-06T12:45:22.957Z,5.93
2022-11-06T12:48:30.601Z,5.87
2022-11-06T12:51:50.728Z,5.95
2022-11-06T12:55:15.116Z,6.00
2022-11-06T12:58:40.251Z,6.03
2022-11-06T13:02:00.360Z,6.09
2022-11-06T13:05:03.446Z,6.02
2022-11-06T13:08:24.158Z,6.03
2022-11-06T13:11:48.974Z,6.10
2022-11-06T13:15:08.987Z,6.11
2022-11-06T13:18:33.769Z,6.17
2022-11-06T13:21:50.595Z,6.34
2022-11-06T13:25:10.328Z,6.35
2022-11-06T13:28:30.519Z,6.35
2022-11-06T13:31:37.978Z,6.38
2022-11-06T13:34:40.234Z,6.42
2022-11-06T13:37:42.288Z,6.47
2022-11-06T13:40:44.404Z,6.50
2022-11-06T13:43:47.648Z,6.55
2022-11-06T13:46:49.771Z,6.57
2022-11-06T13:49:54.056Z,6.57
2022-11-06T13:53:27.971Z,6.60
2022-11-06T13:56:34.415Z,6.65
2022-11-06T13:59:40.500Z,6.61
2022-11-06T14:03:01.449Z,6.58
2022-11-06T14:06:04.085Z,6.63
2022-11-06T14:09:06.725Z,6.65
2022-11-06T14:12:13.936Z,6.61
2022-11-06T14:15:23.467Z,6.68
2022-11-06T14:18:25.061Z,6.69
2022-11-06T14:21:26.583Z,6.74
2022-11-06T14:24:30.955Z,6.81
2022-11-06T14:27:35.359Z,6.82
2022-11-06T14:31:10.360Z,6.84
2022-11-06T14:34:03.932Z,6.90
2022-11-06T14:37:29.859Z,6.95
2022-11-06T14:40:32.791Z,6.98
2022-11-06T14:43:34.535Z,7.00
2022-11-06T14:46:36.095Z,7.00
2022-11-06T14:49:38.858Z,6.97
2022-11-06T14:52:42.352Z,6.94
2022-11-06T14:55:45.572Z,6.95
2022-11-06T14:59:06.652Z,6.96
2022-11-06T15:02:11.284Z,6.98
2022-11-06T15:05:16.617Z,6.98
2022-11-06T15:08:36.917Z,6.98
2022-11-06T15:11:47.938Z,7.00
2022-11-06T15:14:52.854Z,7.04
2022-11-06T15:17:54.396Z,7.03
2022-11-06T15:20:56.536Z,7.02
2022-11-06T15:24:08.527Z,7.01
2022-11-06T15:27:15.486Z,6.99
2022-11-06T15:30:17.392Z,6.98
2022-11-06T15:33:21.831Z,7.01
2022-11-06T15:36:23.352Z,7.02
2022-11-06T15:39:33.421Z,7.03
2022-11-06T15:42:35.295Z,7.07
2022-11-06T15:45:37.393Z,7.09
2022-11-06T15:48:38.954Z,7.06
2022-11-06T15:51:40.440Z,7.08
2022-11-06T15:54:43.972Z,7.11
2022-11-06T15:57:45.882Z,7.11
2022-11-06T16:00:47.638Z,7.11
2022-11-06T16:03:50.785Z,7.13
2022-11-06T16:06:53.848Z,7.14
2022-11-06T16:09:55.375Z,7.16
2022-11-06T16:12:56.983Z,7.18
2022-11-06T16:16:01.464Z,7.20
2022-11-06T16:19:03.895Z,7.16
2022-11-06T16:22:07.780Z,7.18
2022-11-06T16:25:16.024Z,7.16
2022-11-06T16:28:18.652Z,7.18
2022-11-06T16:31:23.886Z,7.17
2022-11-06T16:34:31.462Z,7.20
2022-11-06T16:37:36.432Z,7.22
2022-11-06T16:40:44.160Z,7.23
2022-11-06T16:43:45.800Z,7.25
2022-11-06T16:47:23.018Z,7.25
2022-11-06T16:50:44.492Z,7.24
2022-11-06T16:53:59.199Z,7.28
2022-11-06T16:57:10.415Z,7.29
2022-11-06T17:00:12.078Z,7.30
2022-11-06T17:03:20.442Z,7.32
2022-11-06T17:06:29.390Z,7.32
2022-11-06T17:09:34.892Z,7.33
2022-11-06T17:12:36.375Z,7.35
2022-11-06T17:15:38.010Z,7.34
2022-11-06T17:18:39.572Z,7.36
2022-11-06T17:21:41.236Z,7.37
2022-11-06T17:24:44.045Z,7.36
2022-11-06T17:27:45.644Z,7.36
2022-11-06T17:30:47.727Z,7.38
2022-11-06T17:33:49.514Z,7.40
2022-11-06T17:36:51.018Z,7.42
2022-11-06T17:39:52.744Z,7.44
2022-11-06T17:42:56.126Z,7.42
2022-11-06T17:45:57.790Z,7.42
2022-11-06T17:48:59.406Z,7.43
2022-11-06T17:52:01.143Z,7.45
2022-11-06T17:55:02.886Z,7.48
2022-11-06T17:58:04.441Z,7.44
2022-11-06T18:01:06.882Z,7.41
2022-11-06T18:04:08.620Z,7.43
2022-11-06T18:07:10.179Z,7.44
2022-11-06T18:10:11.722Z,7.46
2022-11-06T18:13:13.227Z,7.40
2022-11-06T18:16:33.554Z,7.38
2022-11-06T18:19:35.164Z,7.34
2022-11-06T18:22:36.675Z,7.33
2022-11-06T18:25:38.231Z,7.36
2022-11-06T18:28:40.051Z,7.35
2022-11-06T18:31:41.786Z,7.27
2022-11-06T18:34:43.390Z,7.22
2022-11-06T18:37:45.072Z,7.12
2022-11-06T18:40:51.377Z,7.04
2022-11-06T18:43:57.274Z,6.97
2022-11-06T18:46:58.816Z,6.94
2022-11-06T18:50:00.370Z,6.92
2022-11-06T18:53:02.348Z,6.87
2022-11-06T18:56:04.270Z,6.79
2022-11-06T18:59:06.739Z,6.73
2022-11-06T19:02:11.404Z,6.66
2022-11-06T19:05:13.250Z,6.62
2022-11-06T19:08:15.036Z,6.52
2022-11-06T19:11:17.418Z,6.39
2022-11-06T19:14:19.072Z,6.25
2022-11-06T19:17:20.709Z,6.14
2022-11-06T19:20:22.585Z,6.12
2022-11-06T19:23:24.169Z,6.18
2022-11-06T19:26:31.214Z,6.27
2022-11-06T19:29:33.391Z,6.23
2022-11-06T19:32:34.954Z,6.21
2022-11-06T19:35:36.524Z,6.21
2022-11-06T19:38:38.033Z,6.19
2022-11-06T19:41:39.561Z,6.14
2022-11-06T19:44:41.100Z,6.17
2022-11-06T19:47:42.626Z,6.25
2022-11-06T19:50:59.318Z,6.37
2022-11-06T19:54:01.710Z,6.57
2022-11-06T19:57:27.760Z,6.71
2022-11-06T20:00:24.849Z,6.72
2022-11-06T20:03:26.416Z,6.73
2022-11-06T20:06:28.032Z,6.72
2022-11-06T20:09:29.553Z,6.77
2022-11-06T20:12:31.143Z,6.73
2022-11-06T20:15:32.986Z,6.80
2022-11-06T20:18:37.877Z,7.01
2022-11-06T20:21:39.447Z,7.13
2022-11-06T20:24:41.542Z,7.43
2022-11-06T20:27:43.163Z,7.43
2022-11-06T20:30:44.679Z,7.51
2022-11-06T20:33:46.544Z,7.57
2022-11-06T20:36:48.107Z,7.44
2022-11-06T20:39:52.029Z,7.38
2022-11-06T20:42:53.543Z,7.43
2022-11-06T20:45:55.072Z,7.71
2022-11-06T20:48:58.291Z,7.66
2022-11-06T20:52:13.685Z,7.47
2022-11-06T20:55:15.821Z,7.41
2022-11-06T20:58:17.368Z,7.38
2022-11-06T21:01:21.015Z,7.26
2022-11-06T21:04:22.760Z,7.09
2022-11-06T21:07:24.322Z,7.08
2022-11-06T21:10:25.977Z,7.12
2022-11-06T21:13:27.828Z,7.16
2022-11-06T21:16:36.088Z,7.17
2022-11-06T21:19:37.726Z,7.24
2022-11-06T21:22:39.272Z,7.15
2022-11-06T21:25:45.096Z,7.02
2022-11-06T21:28:46.948Z,7.03
2022-11-06T21:31:49.318Z,7.02
2022-11-06T21:34:50.992Z,7.05
2022-11-06T21:37:52.511Z,7.23
2022-11-06T21:40:54.044Z,7.17
2022-11-06T21:43:55.935Z,7.04
2022-11-06T21:46:57.477Z,7.24
2022-11-06T21:49:59.150Z,7.23
2022-11-06T21:53:19.336Z,7.16
2022-11-06T21:56:25.833Z,7.24
2022-11-06T21:59:28.550Z,7.26
2022-11-06T22:02:30.146Z,7.19
2022-11-06T22:05:31.797Z,7.25
2022-11-06T22:08:37.173Z,7.26
2022-11-06T22:11:42.538Z,7.30
2022-11-06T22:14:44.251Z,7.24
2022-11-06T22:17:45.752Z,7.13
2022-11-06T22:20:47.233Z,7.06
2022-11-06T22:23:48.859Z,7.16
2022-11-06T22:26:50.363Z,7.19
2022-11-06T22:29:51.839Z,7.30
2022-11-06T22:32:53.370Z,7.36
2022-11-06T22:36:08.144Z,7.57
2022-11-06T22:39:10.011Z,7.50
2022-11-06T22:42:11.559Z,7.48
2022-11-06T22:45:13.030Z,7.42
2022-11-06T22:48:14.912Z,7.38
2022-11-06T22:51:17.499Z,7.35
2022-11-06T22:54:20.120Z,7.33
2022-11-06T22:57:21.706Z,7.34
2022-11-06T23:00:23.320Z,7.36
2022-11-06T23:03:25.500Z,7.36
2022-11-06T23:06:27.074Z,7.35
2022-11-06T23:09:28.592Z,7.34
2022-11-06T23:12:30.091Z,7.26
2022-11-06T23:15:31.659Z,7.20
2022-11-06T23:18:33.780Z,7.18
2022-11-06T23:21:35.400Z,7.13
2022-11-06T23:24:36.965Z,7.12
2022-11-06T23:27:38.501Z,7.06
2022-11-06T23:30:39.977Z,6.92
2022-11-06T23:33:42.076Z,6.85
2022-11-06T23:36:43.589Z,6.85
2022-11-06T23:39:45.080Z,6.89
2022-11-06T23:42:50.343Z,6.87
2022-11-06T23:45:52.231Z,6.92
2022-11-06T23:48:53.789Z,6.93
2022-11-06T23:51:55.548Z,6.92
2022-11-06T23:54:57.111Z,6.84
2022-11-06T23:57:58.761Z,6.86
